sensor_id;sensor_type;location;lat;lon;timestamp;temperature;humidity
8914;DHT22;4492;48.736;9.092;2023-09-18T00:01:08;17.40;99.90
8914;DHT22;4492;48.736;9.092;2023-09-18T00:03:34;17.40;99.90
8914;DHT22;4492;48.736;9.092;2023-09-18T00:06:00;17.40;99.90
8914;DHT22;4492;48.736;9.092;2023-09-18T00:08:25;17.40;99.90
8914;DHT22;4492;48.736;9.092;2023-09-18T00:10:53;17.40;99.90
8914;DHT22;4492;48.736;9.092;2023-09-18T00:13:20;17.40;99.90
8914;DHT22;4492;48.736;9.092;2023-09-18T00:15:45;17.30;99.90
8914;DHT22;4492;48.736;9.092;2023-09-18T00:18:16;17.30;99.90
8914;DHT22;4492;48.736;9.092;2023-09-18T00:20:42;17.30;99.90
8914;DHT22;4492;48.736;9.092;2023-09-18T00:23:08;17.30;99.90
8914;DHT22;4492;48.736;9.092;2023-09-18T00:25:34;17.30;99.90
8914;DHT22;4492;48.736;9.092;2023-09-18T00:27:59;17.40;99.90
8914;DHT22;4492;48.736;9.092;2023-09-18T00:30:25;17.50;99.90
8914;DHT22;4492;48.736;9.092;2023-09-18T00:32:50;17.50;99.90
8914;DHT22;4492;48.736;9.092;2023-09-18T00:35:16;17.50;99.90
8914;DHT22;4492;48.736;9.092;2023-09-18T00:37:42;17.60;99.90
8914;DHT22;4492;48.736;9.092;2023-09-18T00:40:08;17.60;99.90
8914;DHT22;4492;48.736;9.092;2023-09-18T00:42:34;17.60;99.90
8914;DHT22;4492;48.736;9.092;2023-09-18T00:45:00;17.60;99.90
8914;DHT22;4492;48.736;9.092;2023-09-18T00:47:25;17.70;99.90
8914;DHT22;4492;48.736;9.092;2023-09-18T00:49:52;17.60;99.90
8914;DHT22;4492;48.736;9.092;2023-09-18T00:52:19;17.70;99.90
8914;DHT22;4492;48.736;9.092;2023-09-18T00:54:46;17.70;99.90
8914;DHT22;4492;48.736;9.092;2023-09-18T00:57:12;17.70;99.90
8914;DHT22;4492;48.736;9.092;2023-09-18T00:59:38;17.80;99.90
8914;DHT22;4492;48.736;9.092;2023-09-18T01:02:04;17.80;99.90
8914;DHT22;4492;48.736;9.092;2023-09-18T01:04:30;17.80;99.90
8914;DHT22;4492;48.736;9.092;2023-09-18T01:06:58;17.90;99.90
8914;DHT22;4492;48.736;9.092;2023-09-18T01:09:24;17.90;99.90
8914;DHT22;4492;48.736;9.092;2023-09-18T01:11:57;18.00;99.90
8914;DHT22;4492;48.736;9.092;2023-09-18T01:14:44;18.00;99.90
8914;DHT22;4492;48.736;9.092;2023-09-18T01:17:16;18.10;99.90
8914;DHT22;4492;48.736;9.092;2023-09-18T01:19:43;18.10;99.90
8914;DHT22;4492;48.736;9.092;2023-09-18T01:22:14;18.30;99.90
8914;DHT22;4492;48.736;9.092;2023-09-18T01:24:40;18.50;99.90
8914;DHT22;4492;48.736;9.092;2023-09-18T01:27:11;18.70;99.90
8914;DHT22;4492;48.736;9.092;2023-09-18T01:29:38;18.90;99.90
8914;DHT22;4492;48.736;9.092;2023-09-18T01:32:04;19.10;99.90
8914;DHT22;4492;48.736;9.092;2023-09-18T01:34:35;19.20;99.90
8914;DHT22;4492;48.736;9.092;2023-09-18T01:37:03;19.30;99.90
8914;DHT22;4492;48.736;9.092;2023-09-18T01:39:31;19.50;99.90
8914;DHT22;4492;48.736;9.092;2023-09-18T01:42:05;19.60;99.90
8914;DHT22;4492;48.736;9.092;2023-09-18T01:44:31;19.70;99.90
8914;DHT22;4492;48.736;9.092;2023-09-18T01:46:59;19.90;99.90
8914;DHT22;4492;48.736;9.092;2023-09-18T01:49:39;20.00;99.90
8914;DHT22;4492;48.736;9.092;2023-09-18T01:52:06;20.10;99.90
8914;DHT22;4492;48.736;9.092;2023-09-18T01:54:33;20.20;99.90
8914;DHT22;4492;48.736;9.092;2023-09-18T01:56:59;20.20;99.90
8914;DHT22;4492;48.736;9.092;2023-09-18T01:59:24;20.10;99.90
8914;DHT22;4492;48.736;9.092;2023-09-18T02:01:51;20.10;99.90
8914;DHT22;4492;48.736;9.092;2023-09-18T02:04:17;20.00;99.90
8914;DHT22;4492;48.736;9.092;2023-09-18T02:06:44;19.90;99.90
8914;DHT22;4492;48.736;9.092;2023-09-18T02:09:09;19.70;99.90
8914;DHT22;4492;48.736;9.092;2023-09-18T02:11:39;19.70;99.90
8914;DHT22;4492;48.736;9.092;2023-09-18T02:14:05;19.60;99.90
8914;DHT22;4492;48.736;9.092;2023-09-18T02:16:35;19.30;99.90
8914;DHT22;4492;48.736;9.092;2023-09-18T02:19:04;19.10;99.90
8914;DHT22;4492;48.736;9.092;2023-09-18T02:21:30;19.00;99.90
8914;DHT22;4492;48.736;9.092;2023-09-18T02:23:56;18.90;99.90
8914;DHT22;4492;48.736;9.092;2023-09-18T02:26:23;18.90;99.90
8914;DHT22;4492;48.736;9.092;2023-09-18T02:28:51;18.80;99.90
8914;DHT22;4492;48.736;9.092;2023-09-18T02:31:17;18.80;99.90
8914;DHT22;4492;48.736;9.092;2023-09-18T02:33:43;18.70;99.90
8914;DHT22;4492;48.736;9.092;2023-09-18T02:36:08;18.70;99.90
8914;DHT22;4492;48.736;9.092;2023-09-18T02:38:34;18.70;99.90
8914;DHT22;4492;48.736;9.092;2023-09-18T02:41:00;18.90;99.90
8914;DHT22;4492;48.736;9.092;2023-09-18T02:43:26;19.00;99.90
8914;DHT22;4492;48.736;9.092;2023-09-18T02:45:52;19.20;99.90
8914;DHT22;4492;48.736;9.092;2023-09-18T02:48:17;19.00;99.90
8914;DHT22;4492;48.736;9.092;2023-09-18T02:50:43;19.00;99.90
8914;DHT22;4492;48.736;9.092;2023-09-18T02:53:23;19.00;99.90
8914;DHT22;4492;48.736;9.092;2023-09-18T02:55:50;18.90;99.90
8914;DHT22;4492;48.736;9.092;2023-09-18T02:58:16;18.80;99.90
8914;DHT22;4492;48.736;9.092;2023-09-18T03:00:43;18.80;99.90
8914;DHT22;4492;48.736;9.092;2023-09-18T03:03:08;18.70;99.90
8914;DHT22;4492;48.736;9.092;2023-09-18T03:05:34;18.60;99.90
8914;DHT22;4492;48.736;9.092;2023-09-18T03:07:59;18.60;99.90
8914;DHT22;4492;48.736;9.092;2023-09-18T03:10:25;18.50;99.90
8914;DHT22;4492;48.736;9.092;2023-09-18T03:12:50;18.40;99.90
8914;DHT22;4492;48.736;9.092;2023-09-18T03:15:16;18.30;99.90
8914;DHT22;4492;48.736;9.092;2023-09-18T03:17:42;18.30;99.90
8914;DHT22;4492;48.736;9.092;2023-09-18T03:20:08;18.20;99.90
8914;DHT22;4492;48.736;9.092;2023-09-18T03:22:34;18.10;99.90
8914;DHT22;4492;48.736;9.092;2023-09-18T03:25:00;18.20;99.90
8914;DHT22;4492;48.736;9.092;2023-09-18T03:27:25;18.20;99.90
8914;DHT22;4492;48.736;9.092;2023-09-18T03:29:54;18.20;99.90
8914;DHT22;4492;48.736;9.092;2023-09-18T03:32:20;18.30;99.90
8914;DHT22;4492;48.736;9.092;2023-09-18T03:34:46;18.30;99.90
8914;DHT22;4492;48.736;9.092;2023-09-18T03:37:12;18.30;99.90
8914;DHT22;4492;48.736;9.092;2023-09-18T03:39:37;18.30;99.90
8914;DHT22;4492;48.736;9.092;2023-09-18T03:42:03;18.30;99.90
8914;DHT22;4492;48.736;9.092;2023-09-18T03:44:28;18.30;99.90
8914;DHT22;4492;48.736;9.092;2023-09-18T03:46:54;18.30;99.90
8914;DHT22;4492;48.736;9.092;2023-09-18T03:49:20;18.40;99.90
8914;DHT22;4492;48.736;9.092;2023-09-18T03:51:45;18.50;99.90
8914;DHT22;4492;48.736;9.092;2023-09-18T03:54:11;18.60;99.90
8914;DHT22;4492;48.736;9.092;2023-09-18T03:56:36;18.60;99.90
8914;DHT22;4492;48.736;9.092;2023-09-18T03:59:02;18.40;99.90
8914;DHT22;4492;48.736;9.092;2023-09-18T04:01:28;18.70;99.90
8914;DHT22;4492;48.736;9.092;2023-09-18T04:03:53;18.70;99.90
8914;DHT22;4492;48.736;9.092;2023-09-18T04:06:21;18.70;99.90
8914;DHT22;4492;48.736;9.092;2023-09-18T04:08:47;18.70;99.90
8914;DHT22;4492;48.736;9.092;2023-09-18T04:11:12;18.80;99.90
8914;DHT22;4492;48.736;9.092;2023-09-18T04:13:38;18.80;99.90
8914;DHT22;4492;48.736;9.092;2023-09-18T04:16:04;18.90;99.90
8914;DHT22;4492;48.736;9.092;2023-09-18T04:18:29;18.90;99.90
8914;DHT22;4492;48.736;9.092;2023-09-18T04:20:55;18.90;99.90
8914;DHT22;4492;48.736;9.092;2023-09-18T04:23:25;19.00;99.90
8914;DHT22;4492;48.736;9.092;2023-09-18T04:25:53;18.90;99.90
8914;DHT22;4492;48.736;9.092;2023-09-18T04:28:21;18.90;99.90
8914;DHT22;4492;48.736;9.092;2023-09-18T04:30:47;19.00;99.90
8914;DHT22;4492;48.736;9.092;2023-09-18T04:33:16;18.70;99.90
8914;DHT22;4492;48.736;9.092;2023-09-18T04:35:42;18.70;99.90
8914;DHT22;4492;48.736;9.092;2023-09-18T04:38:08;18.70;99.90
8914;DHT22;4492;48.736;9.092;2023-09-18T04:40:34;18.60;99.90
8914;DHT22;4492;48.736;9.092;2023-09-18T04:43:00;18.60;99.90
8914;DHT22;4492;48.736;9.092;2023-09-18T04:45:26;18.50;99.90
8914;DHT22;4492;48.736;9.092;2023-09-18T04:47:52;18.40;99.90
8914;DHT22;4492;48.736;9.092;2023-09-18T04:50:18;18.30;99.90
8914;DHT22;4492;48.736;9.092;2023-09-18T04:52:44;18.30;99.90
8914;DHT22;4492;48.736;9.092;2023-09-18T04:55:10;18.20;99.90
8914;DHT22;4492;48.736;9.092;2023-09-18T04:57:37;18.00;99.90
8914;DHT22;4492;48.736;9.092;2023-09-18T05:00:03;18.10;99.90
8914;DHT22;4492;48.736;9.092;2023-09-18T05:02:33;18.10;99.90
8914;DHT22;4492;48.736;9.092;2023-09-18T05:04:59;18.10;99.90
8914;DHT22;4492;48.736;9.092;2023-09-18T05:07:25;18.00;99.90
8914;DHT22;4492;48.736;9.092;2023-09-18T05:09:51;18.00;99.90
8914;DHT22;4492;48.736;9.092;2023-09-18T05:12:17;18.00;99.90
8914;DHT22;4492;48.736;9.092;2023-09-18T05:14:43;18.00;99.90
8914;DHT22;4492;48.736;9.092;2023-09-18T05:17:15;18.00;99.90
8914;DHT22;4492;48.736;9.092;2023-09-18T05:19:41;18.00;99.90
8914;DHT22;4492;48.736;9.092;2023-09-18T05:22:08;18.00;99.90
8914;DHT22;4492;48.736;9.092;2023-09-18T05:24:35;18.00;99.90
8914;DHT22;4492;48.736;9.092;2023-09-18T05:27:01;17.90;99.90
8914;DHT22;4492;48.736;9.092;2023-09-18T05:29:28;17.90;99.90
8914;DHT22;4492;48.736;9.092;2023-09-18T05:31:53;17.90;99.90
8914;DHT22;4492;48.736;9.092;2023-09-18T05:34:19;17.90;99.90
8914;DHT22;4492;48.736;9.092;2023-09-18T05:36:44;17.90;99.90
8914;DHT22;4492;48.736;9.092;2023-09-18T05:39:10;18.00;99.90
8914;DHT22;4492;48.736;9.092;2023-09-18T05:41:38;18.00;99.90
8914;DHT22;4492;48.736;9.092;2023-09-18T05:44:04;18.00;99.90
8914;DHT22;4492;48.736;9.092;2023-09-18T05:46:35;18.00;99.90
8914;DHT22;4492;48.736;9.092;2023-09-18T05:49:01;18.00;99.90
8914;DHT22;4492;48.736;9.092;2023-09-18T05:51:27;18.00;99.90
8914;DHT22;4492;48.736;9.092;2023-09-18T05:53:52;18.10;99.90
8914;DHT22;4492;48.736;9.092;2023-09-18T05:56:18;18.10;99.90
8914;DHT22;4492;48.736;9.092;2023-09-18T05:58:44;18.20;99.90
8914;DHT22;4492;48.736;9.092;2023-09-18T06:01:09;18.20;99.90
8914;DHT22;4492;48.736;9.092;2023-09-18T06:03:35;18.30;99.90
8914;DHT22;4492;48.736;9.092;2023-09-18T06:06:07;18.30;99.90
8914;DHT22;4492;48.736;9.092;2023-09-18T06:08:33;18.30;99.90
8914;DHT22;4492;48.736;9.092;2023-09-18T06:10:59;18.30;99.90
8914;DHT22;4492;48.736;9.092;2023-09-18T06:13:25;18.30;99.90
8914;DHT22;4492;48.736;9.092;2023-09-18T06:15:52;18.30;99.90
8914;DHT22;4492;48.736;9.092;2023-09-18T06:18:20;18.20;99.90
8914;DHT22;4492;48.736;9.092;2023-09-18T06:20:48;18.10;99.90
8914;DHT22;4492;48.736;9.092;2023-09-18T06:23:14;18.00;99.90
8914;DHT22;4492;48.736;9.092;2023-09-18T06:25:40;18.00;99.90
8914;DHT22;4492;48.736;9.092;2023-09-18T06:28:05;18.00;99.90
8914;DHT22;4492;48.736;9.092;2023-09-18T06:30:32;18.00;99.90
8914;DHT22;4492;48.736;9.092;2023-09-18T06:32:59;18.00;99.90
8914;DHT22;4492;48.736;9.092;2023-09-18T06:35:24;18.00;99.90
8914;DHT22;4492;48.736;9.092;2023-09-18T06:37:50;18.00;99.90
8914;DHT22;4492;48.736;9.092;2023-09-18T06:40:16;18.00;99.90
8914;DHT22;4492;48.736;9.092;2023-09-18T06:42:41;18.10;99.90
8914;DHT22;4492;48.736;9.092;2023-09-18T06:45:07;18.10;99.90
8914;DHT22;4492;48.736;9.092;2023-09-18T06:47:34;18.10;99.90
8914;DHT22;4492;48.736;9.092;2023-09-18T06:49:59;18.10;99.90
8914;DHT22;4492;48.736;9.092;2023-09-18T06:52:30;18.10;99.90
8914;DHT22;4492;48.736;9.092;2023-09-18T06:54:55;18.10;99.90
8914;DHT22;4492;48.736;9.092;2023-09-18T06:57:23;18.20;99.90
8914;DHT22;4492;48.736;9.092;2023-09-18T06:59:49;18.20;99.90
8914;DHT22;4492;48.736;9.092;2023-09-18T07:02:14;18.20;99.90
8914;DHT22;4492;48.736;9.092;2023-09-18T07:04:41;18.30;99.90
8914;DHT22;4492;48.736;9.092;2023-09-18T07:07:14;18.30;99.90
8914;DHT22;4492;48.736;9.092;2023-09-18T07:09:41;18.50;99.90
8914;DHT22;4492;48.736;9.092;2023-09-18T07:12:09;18.60;99.90
8914;DHT22;4492;48.736;9.092;2023-09-18T07:14:36;18.60;99.90
8914;DHT22;4492;48.736;9.092;2023-09-18T07:17:02;18.80;99.90
8914;DHT22;4492;48.736;9.092;2023-09-18T07:19:27;18.90;99.90
8914;DHT22;4492;48.736;9.092;2023-09-18T07:21:53;18.90;99.90
8914;DHT22;4492;48.736;9.092;2023-09-18T07:24:18;18.90;99.90
8914;DHT22;4492;48.736;9.092;2023-09-18T07:26:47;19.00;99.90
8914;DHT22;4492;48.736;9.092;2023-09-18T07:29:16;19.00;99.90
8914;DHT22;4492;48.736;9.092;2023-09-18T07:31:42;19.00;99.90
8914;DHT22;4492;48.736;9.092;2023-09-18T07:34:09;19.00;99.90
8914;DHT22;4492;48.736;9.092;2023-09-18T07:36:35;19.10;99.90
8914;DHT22;4492;48.736;9.092;2023-09-18T07:39:00;19.10;99.90
8914;DHT22;4492;48.736;9.092;2023-09-18T07:41:26;19.10;99.90
8914;DHT22;4492;48.736;9.092;2023-09-18T07:43:51;19.30;99.90
8914;DHT22;4492;48.736;9.092;2023-09-18T07:46:18;19.10;99.90
8914;DHT22;4492;48.736;9.092;2023-09-18T07:48:43;19.20;99.90
8914;DHT22;4492;48.736;9.092;2023-09-18T07:51:12;19.30;99.90
8914;DHT22;4492;48.736;9.092;2023-09-18T07:53:38;19.30;99.90
8914;DHT22;4492;48.736;9.092;2023-09-18T07:56:04;19.30;99.90
8914;DHT22;4492;48.736;9.092;2023-09-18T07:58:31;18.90;99.90
8914;DHT22;4492;48.736;9.092;2023-09-18T08:00:56;19.20;99.90
8914;DHT22;4492;48.736;9.092;2023-09-18T08:03:25;19.20;99.90
8914;DHT22;4492;48.736;9.092;2023-09-18T08:05:54;19.30;99.90
8914;DHT22;4492;48.736;9.092;2023-09-18T08:08:20;19.20;99.90
8914;DHT22;4492;48.736;9.092;2023-09-18T08:10:47;19.10;99.90
8914;DHT22;4492;48.736;9.092;2023-09-18T08:13:13;19.00;99.90
8914;DHT22;4492;48.736;9.092;2023-09-18T08:15:39;19.00;99.90
8914;DHT22;4492;48.736;9.092;2023-09-18T08:18:04;18.90;99.90
8914;DHT22;4492;48.736;9.092;2023-09-18T08:20:30;18.90;99.90
8914;DHT22;4492;48.736;9.092;2023-09-18T08:22:55;19.00;99.90
8914;DHT22;4492;48.736;9.092;2023-09-18T08:25:21;19.10;99.90
8914;DHT22;4492;48.736;9.092;2023-09-18T08:27:47;19.10;99.90
8914;DHT22;4492;48.736;9.092;2023-09-18T08:30:14;19.10;99.90
8914;DHT22;4492;48.736;9.092;2023-09-18T08:32:41;19.00;99.90
8914;DHT22;4492;48.736;9.092;2023-09-18T08:35:07;19.00;99.90
8914;DHT22;4492;48.736;9.092;2023-09-18T08:37:33;18.90;99.90
8914;DHT22;4492;48.736;9.092;2023-09-18T08:39:59;18.90;99.90
8914;DHT22;4492;48.736;9.092;2023-09-18T08:42:32;18.70;99.90
8914;DHT22;4492;48.736;9.092;2023-09-18T08:44:59;18.60;99.90
8914;DHT22;4492;48.736;9.092;2023-09-18T08:47:27;18.60;99.90
8914;DHT22;4492;48.736;9.092;2023-09-18T08:49:54;18.40;99.90
8914;DHT22;4492;48.736;9.092;2023-09-18T08:52:21;18.30;99.90
8914;DHT22;4492;48.736;9.092;2023-09-18T08:54:48;18.20;99.90
8914;DHT22;4492;48.736;9.092;2023-09-18T08:57:14;18.20;99.90
8914;DHT22;4492;48.736;9.092;2023-09-18T08:59:40;18.00;99.90
8914;DHT22;4492;48.736;9.092;2023-09-18T09:02:07;18.00;99.90
8914;DHT22;4492;48.736;9.092;2023-09-18T09:04:32;17.90;99.90
8914;DHT22;4492;48.736;9.092;2023-09-18T09:06:58;17.80;99.90
8914;DHT22;4492;48.736;9.092;2023-09-18T09:09:25;17.80;99.90
8914;DHT22;4492;48.736;9.092;2023-09-18T09:11:52;17.70;99.90
8914;DHT22;4492;48.736;9.092;2023-09-18T09:14:18;17.60;99.90
8914;DHT22;4492;48.736;9.092;2023-09-18T09:16:51;17.50;99.90
8914;DHT22;4492;48.736;9.092;2023-09-18T09:19:17;17.40;99.90
8914;DHT22;4492;48.736;9.092;2023-09-18T09:21:43;17.40;99.90
8914;DHT22;4492;48.736;9.092;2023-09-18T09:24:10;17.40;99.90
8914;DHT22;4492;48.736;9.092;2023-09-18T09:26:40;17.40;99.90
8914;DHT22;4492;48.736;9.092;2023-09-18T09:29:19;17.40;99.90
8914;DHT22;4492;48.736;9.092;2023-09-18T09:31:45;17.40;99.90
8914;DHT22;4492;48.736;9.092;2023-09-18T09:34:12;17.40;99.90
8914;DHT22;4492;48.736;9.092;2023-09-18T09:36:58;17.40;99.90
8914;DHT22;4492;48.736;9.092;2023-09-18T09:39:26;17.40;99.90
8914;DHT22;4492;48.736;9.092;2023-09-18T09:41:52;17.50;99.90
8914;DHT22;4492;48.736;9.092;2023-09-18T09:44:18;17.60;99.90
8914;DHT22;4492;48.736;9.092;2023-09-18T09:46:47;17.60;99.90
8914;DHT22;4492;48.736;9.092;2023-09-18T09:49:13;17.70;99.90
8914;DHT22;4492;48.736;9.092;2023-09-18T09:51:41;17.70;99.90
8914;DHT22;4492;48.736;9.092;2023-09-18T09:54:07;17.70;99.90
8914;DHT22;4492;48.736;9.092;2023-09-18T09:56:48;17.80;99.90
8914;DHT22;4492;48.736;9.092;2023-09-18T09:59:17;17.90;99.90
8914;DHT22;4492;48.736;9.092;2023-09-18T10:01:46;18.10;99.90
8914;DHT22;4492;48.736;9.092;2023-09-18T10:04:15;18.30;99.90
8914;DHT22;4492;48.736;9.092;2023-09-18T10:06:47;18.50;99.90
8914;DHT22;4492;48.736;9.092;2023-09-18T10:09:14;18.60;99.90
8914;DHT22;4492;48.736;9.092;2023-09-18T10:11:45;18.70;99.90
8914;DHT22;4492;48.736;9.092;2023-09-18T10:14:16;18.60;99.90
8914;DHT22;4492;48.736;9.092;2023-09-18T10:16:47;18.70;99.90
8914;DHT22;4492;48.736;9.092;2023-09-18T10:19:33;18.60;99.90
8914;DHT22;4492;48.736;9.092;2023-09-18T10:22:12;18.40;99.90
8914;DHT22;4492;48.736;9.092;2023-09-18T10:24:42;18.40;99.90
8914;DHT22;4492;48.736;9.092;2023-09-18T10:27:12;18.30;99.90
8914;DHT22;4492;48.736;9.092;2023-09-18T10:29:41;18.30;99.90
8914;DHT22;4492;48.736;9.092;2023-09-18T10:32:07;18.20;99.90
8914;DHT22;4492;48.736;9.092;2023-09-18T10:34:33;18.20;99.90
8914;DHT22;4492;48.736;9.092;2023-09-18T10:37:01;18.10;99.90
8914;DHT22;4492;48.736;9.092;2023-09-18T10:39:31;18.00;99.90
8914;DHT22;4492;48.736;9.092;2023-09-18T10:42:01;18.00;99.90
8914;DHT22;4492;48.736;9.092;2023-09-18T10:44:28;17.90;99.90
8914;DHT22;4492;48.736;9.092;2023-09-18T10:46:54;18.00;99.90
8914;DHT22;4492;48.736;9.092;2023-09-18T10:49:21;17.90;99.90
8914;DHT22;4492;48.736;9.092;2023-09-18T10:51:47;17.80;99.90
8914;DHT22;4492;48.736;9.092;2023-09-18T10:54:20;17.90;99.90
8914;DHT22;4492;48.736;9.092;2023-09-18T10:56:47;17.90;99.90
8914;DHT22;4492;48.736;9.092;2023-09-18T10:59:14;17.90;99.90
8914;DHT22;4492;48.736;9.092;2023-09-18T11:01:40;17.90;99.90
8914;DHT22;4492;48.736;9.092;2023-09-18T11:04:07;17.90;99.90
8914;DHT22;4492;48.736;9.092;2023-09-18T11:09:26;17.90;99.90
8914;DHT22;4492;48.736;9.092;2023-09-18T11:17:34;17.80;99.90
8914;DHT22;4492;48.736;9.092;2023-09-18T11:20:07;17.90;99.90
8914;DHT22;4492;48.736;9.092;2023-09-18T11:22:55;17.90;99.90
8914;DHT22;4492;48.736;9.092;2023-09-18T11:25:40;18.00;99.90
8914;DHT22;4492;48.736;9.092;2023-09-18T11:28:08;18.00;99.90
8914;DHT22;4492;48.736;9.092;2023-09-18T11:30:38;18.10;99.90
8914;DHT22;4492;48.736;9.092;2023-09-18T11:33:07;18.20;99.90
8914;DHT22;4492;48.736;9.092;2023-09-18T11:35:34;18.20;99.90
8914;DHT22;4492;48.736;9.092;2023-09-18T11:38:04;18.30;99.90
8914;DHT22;4492;48.736;9.092;2023-09-18T11:40:34;18.30;99.90
8914;DHT22;4492;48.736;9.092;2023-09-18T11:45:56;18.30;99.90
8914;DHT22;4492;48.736;9.092;2023-09-18T11:48:23;18.30;99.90
8914;DHT22;4492;48.736;9.092;2023-09-18T11:50:51;18.30;99.90
8914;DHT22;4492;48.736;9.092;2023-09-18T11:53:18;18.40;99.90
8914;DHT22;4492;48.736;9.092;2023-09-18T11:55:44;18.40;99.90
8914;DHT22;4492;48.736;9.092;2023-09-18T11:58:10;18.40;99.90
8914;DHT22;4492;48.736;9.092;2023-09-18T12:00:36;18.40;99.90
8914;DHT22;4492;48.736;9.092;2023-09-18T12:03:18;18.50;99.90
8914;DHT22;4492;48.736;9.092;2023-09-18T12:05:58;18.60;99.90
8914;DHT22;4492;48.736;9.092;2023-09-18T12:08:25;18.60;99.90
8914;DHT22;4492;48.736;9.092;2023-09-18T12:10:55;18.60;99.90
8914;DHT22;4492;48.736;9.092;2023-09-18T12:13:20;18.60;99.90
8914;DHT22;4492;48.736;9.092;2023-09-18T12:15:47;18.70;99.90
8914;DHT22;4492;48.736;9.092;2023-09-18T12:18:14;18.70;99.90
8914;DHT22;4492;48.736;9.092;2023-09-18T12:20:49;18.80;99.90
8914;DHT22;4492;48.736;9.092;2023-09-18T12:23:18;18.70;99.90
8914;DHT22;4492;48.736;9.092;2023-09-18T12:25:56;18.60;99.90
8914;DHT22;4492;48.736;9.092;2023-09-18T12:28:25;18.60;99.90
8914;DHT22;4492;48.736;9.092;2023-09-18T12:30:54;18.60;99.90
8914;DHT22;4492;48.736;9.092;2023-09-18T12:33:22;18.60;99.90
8914;DHT22;4492;48.736;9.092;2023-09-18T12:35:48;18.70;99.90
8914;DHT22;4492;48.736;9.092;2023-09-18T12:38:16;18.80;99.90
8914;DHT22;4492;48.736;9.092;2023-09-18T12:40:43;18.90;99.90
8914;DHT22;4492;48.736;9.092;2023-09-18T12:43:12;19.20;99.90
8914;DHT22;4492;48.736;9.092;2023-09-18T12:45:41;19.50;99.90
8914;DHT22;4492;48.736;9.092;2023-09-18T12:48:07;19.90;99.90
8914;DHT22;4492;48.736;9.092;2023-09-18T12:50:32;20.10;99.90
8914;DHT22;4492;48.736;9.092;2023-09-18T12:53:12;20.20;99.90
8914;DHT22;4492;48.736;9.092;2023-09-18T12:55:39;20.20;99.90
8914;DHT22;4492;48.736;9.092;2023-09-18T12:58:05;20.40;99.90
8914;DHT22;4492;48.736;9.092;2023-09-18T13:00:34;20.40;99.90
8914;DHT22;4492;48.736;9.092;2023-09-18T13:03:01;20.40;99.90
8914;DHT22;4492;48.736;9.092;2023-09-18T13:05:30;20.50;99.90
8914;DHT22;4492;48.736;9.092;2023-09-18T13:08:04;20.60;99.90
8914;DHT22;4492;48.736;9.092;2023-09-18T13:10:51;20.40;99.90
8914;DHT22;4492;48.736;9.092;2023-09-18T13:13:23;20.60;99.90
8914;DHT22;4492;48.736;9.092;2023-09-18T13:15:49;20.70;99.90
8914;DHT22;4492;48.736;9.092;2023-09-18T13:18:16;20.70;99.90
8914;DHT22;4492;48.736;9.092;2023-09-18T13:20:43;20.60;99.90
8914;DHT22;4492;48.736;9.092;2023-09-18T13:23:10;20.60;99.90
8914;DHT22;4492;48.736;9.092;2023-09-18T13:25:38;20.50;99.90
8914;DHT22;4492;48.736;9.092;2023-09-18T13:28:05;20.60;99.90
8914;DHT22;4492;48.736;9.092;2023-09-18T13:30:33;20.70;99.90
8914;DHT22;4492;48.736;9.092;2023-09-18T13:33:09;20.90;99.90
8914;DHT22;4492;48.736;9.092;2023-09-18T13:35:36;21.20;99.90
8914;DHT22;4492;48.736;9.092;2023-09-18T13:38:04;21.50;99.90
8914;DHT22;4492;48.736;9.092;2023-09-18T13:40:31;21.70;99.90
8914;DHT22;4492;48.736;9.092;2023-09-18T13:42:58;21.80;99.90
8914;DHT22;4492;48.736;9.092;2023-09-18T13:45:24;21.80;99.90
8914;DHT22;4492;48.736;9.092;2023-09-18T13:47:50;21.90;99.90
8914;DHT22;4492;48.736;9.092;2023-09-18T13:50:16;21.60;99.90
8914;DHT22;4492;48.736;9.092;2023-09-18T13:52:41;21.60;99.90
8914;DHT22;4492;48.736;9.092;2023-09-18T13:55:07;21.60;99.90
8914;DHT22;4492;48.736;9.092;2023-09-18T13:57:34;21.60;99.90
8914;DHT22;4492;48.736;9.092;2023-09-18T14:00:01;21.60;99.90
8914;DHT22;4492;48.736;9.092;2023-09-18T14:02:30;21.60;99.90
8914;DHT22;4492;48.736;9.092;2023-09-18T14:04:56;21.50;99.90
8914;DHT22;4492;48.736;9.092;2023-09-18T14:07:22;21.50;99.90
8914;DHT22;4492;48.736;9.092;2023-09-18T14:09:47;21.40;99.90
8914;DHT22;4492;48.736;9.092;2023-09-18T14:12:14;21.50;99.90
8914;DHT22;4492;48.736;9.092;2023-09-18T14:14:41;21.60;99.90
8914;DHT22;4492;48.736;9.092;2023-09-18T14:17:08;21.60;99.90
8914;DHT22;4492;48.736;9.092;2023-09-18T14:19:34;21.70;99.90
8914;DHT22;4492;48.736;9.092;2023-09-18T14:22:00;21.70;99.90
8914;DHT22;4492;48.736;9.092;2023-09-18T14:24:32;21.70;99.90
8914;DHT22;4492;48.736;9.092;2023-09-18T14:27:00;21.70;99.90
8914;DHT22;4492;48.736;9.092;2023-09-18T14:29:26;21.50;99.90
8914;DHT22;4492;48.736;9.092;2023-09-18T14:31:52;21.30;99.90
8914;DHT22;4492;48.736;9.092;2023-09-18T14:34:18;21.40;99.90
8914;DHT22;4492;48.736;9.092;2023-09-18T14:36:43;21.50;99.90
8914;DHT22;4492;48.736;9.092;2023-09-18T14:39:10;21.60;99.90
8914;DHT22;4492;48.736;9.092;2023-09-18T14:41:36;21.70;99.90
8914;DHT22;4492;48.736;9.092;2023-09-18T14:44:04;21.70;99.90
8914;DHT22;4492;48.736;9.092;2023-09-18T14:46:30;21.60;99.90
8914;DHT22;4492;48.736;9.092;2023-09-18T14:48:59;21.50;99.90
8914;DHT22;4492;48.736;9.092;2023-09-18T14:51:24;21.60;99.90
8914;DHT22;4492;48.736;9.092;2023-09-18T14:53:50;21.50;99.90
8914;DHT22;4492;48.736;9.092;2023-09-18T14:56:15;21.50;99.90
8914;DHT22;4492;48.736;9.092;2023-09-18T14:58:41;21.50;99.90
8914;DHT22;4492;48.736;9.092;2023-09-18T15:01:09;21.50;99.90
8914;DHT22;4492;48.736;9.092;2023-09-18T15:03:35;21.40;99.90
8914;DHT22;4492;48.736;9.092;2023-09-18T15:06:01;21.30;99.90
8914;DHT22;4492;48.736;9.092;2023-09-18T15:08:27;21.10;99.90
8914;DHT22;4492;48.736;9.092;2023-09-18T15:10:53;20.90;99.90
8914;DHT22;4492;48.736;9.092;2023-09-18T15:13:18;20.80;99.90
8914;DHT22;4492;48.736;9.092;2023-09-18T15:15:44;20.80;99.90
8914;DHT22;4492;48.736;9.092;2023-09-18T15:18:10;20.50;99.90
8914;DHT22;4492;48.736;9.092;2023-09-18T15:20:35;20.70;99.90
8914;DHT22;4492;48.736;9.092;2023-09-18T15:23:01;20.70;99.90
8914;DHT22;4492;48.736;9.092;2023-09-18T15:25:27;20.60;99.90
8914;DHT22;4492;48.736;9.092;2023-09-18T15:27:53;20.80;99.90
8914;DHT22;4492;48.736;9.092;2023-09-18T15:30:20;20.90;99.90
8914;DHT22;4492;48.736;9.092;2023-09-18T15:32:54;21.00;99.90
8914;DHT22;4492;48.736;9.092;2023-09-18T15:35:20;21.20;99.90
8914;DHT22;4492;48.736;9.092;2023-09-18T15:37:46;21.30;99.90
8914;DHT22;4492;48.736;9.092;2023-09-18T15:40:12;21.30;99.90
8914;DHT22;4492;48.736;9.092;2023-09-18T15:42:42;21.20;99.90
8914;DHT22;4492;48.736;9.092;2023-09-18T15:45:09;21.10;99.90
8914;DHT22;4492;48.736;9.092;2023-09-18T15:47:37;21.00;99.90
8914;DHT22;4492;48.736;9.092;2023-09-18T15:50:03;21.00;99.90
8914;DHT22;4492;48.736;9.092;2023-09-18T15:52:30;21.00;99.90
8914;DHT22;4492;48.736;9.092;2023-09-18T15:54:55;20.90;99.90
8914;DHT22;4492;48.736;9.092;2023-09-18T15:57:21;20.80;99.90
8914;DHT22;4492;48.736;9.092;2023-09-18T15:59:46;20.80;99.90
8914;DHT22;4492;48.736;9.092;2023-09-18T16:02:12;20.70;99.90
8914;DHT22;4492;48.736;9.092;2023-09-18T16:04:39;20.60;99.90
8914;DHT22;4492;48.736;9.092;2023-09-18T16:07:05;20.50;99.90
8914;DHT22;4492;48.736;9.092;2023-09-18T16:09:31;20.40;99.90
8914;DHT22;4492;48.736;9.092;2023-09-18T16:11:57;20.30;99.90
8914;DHT22;4492;48.736;9.092;2023-09-18T16:14:23;20.10;99.90